Time;durP1;ratioP1;P1;durP2;ratioP2;P2;SDS_P1;SDS_P2;PMS_P1;PMS_P2;Temp;Humidity;BMP_temperature;BMP_pressure;BME280_temperature;BME280_humidity;BME280_pressure;Samples;Min_cycle;Max_cycle;Signal;HPM_P1;HPM_P2
2023/04/07 00:00:17;;;;;;;5.13;3.22;;;;;;;12.34;65.56;101416.28;5005577;28;20045;-43
2023/04/07 00:02:43;;;;;;;3.50;2.80;;;;;;;12.34;65.48;101421.59;5012454;28;20080;-45
2023/04/07 00:05:08;;;;;;;3.25;2.70;;;;;;;12.33;65.92;101415.38;5005377;28;20427;-44
2023/04/07 00:07:33;;;;;;;3.15;2.65;;;;;;;12.33;65.51;101415.38;5005514;28;20038;-42
2023/04/07 00:09:59;;;;;;;3.85;2.85;;;;;;;12.35;65.50;101419.78;5005544;28;20045;-42
2023/04/07 00:12:24;;;;;;;2.90;2.60;;;;;;;12.33;65.42;101419.88;5005129;28;20037;-43
2023/04/07 00:14:50;;;;;;;3.55;2.72;;;;;;;12.33;65.46;101418.06;5005494;28;20041;-42
2023/04/07 00:17:15;;;;;;;2.95;2.65;;;;;;;12.33;65.50;101414.53;5005653;28;20510;-43
2023/04/07 00:19:40;;;;;;;3.58;2.72;;;;;;;12.34;65.41;101426.94;5005106;28;20086;-43
2023/04/07 00:22:06;;;;;;;3.10;2.67;;;;;;;12.33;65.48;101431.41;5005433;28;20125;-41
2023/04/07 00:24:31;;;;;;;3.58;2.78;;;;;;;12.33;65.50;101430.56;5008111;28;20384;-41
2023/04/07 00:26:56;;;;;;;3.85;2.72;;;;;;;12.33;65.47;101430.56;5004854;28;20131;-41
2023/04/07 00:29:22;;;;;;;3.17;2.63;;;;;;;12.32;65.76;101428.84;5004907;28;20117;-42
2023/04/07 00:31:47;;;;;;;3.05;2.72;;;;;;;12.32;65.46;101428.84;5005320;28;20030;-42
2023/04/07 00:34:13;;;;;;;3.58;2.85;;;;;;;12.32;65.69;101424.38;5005256;28;20030;-43
2023/04/07 00:36:38;;;;;;;3.47;2.47;;;;;;;12.32;65.64;101418.19;5004823;28;20037;-42
2023/04/07 00:39:04;;;;;;;3.22;2.85;;;;;;;12.32;65.74;101418.19;5005077;28;20038;-43
2023/04/07 00:41:29;;;;;;;4.30;2.70;;;;;;;12.31;65.63;101416.44;5003784;28;20117;-42
2023/04/07 00:43:55;;;;;;;4.32;2.65;;;;;;;12.32;65.53;101423.50;5006187;28;20475;-42
2023/04/07 00:46:23;;;;;;;3.15;2.45;;;;;;;12.31;65.46;101427.97;5004877;28;20124;-43
2023/04/07 00:48:48;;;;;;;3.85;2.53;;;;;;;12.31;65.37;101421.78;5005279;28;20104;-42
2023/04/07 00:51:14;;;;;;;4.18;2.58;;;;;;;12.30;65.71;101420.94;5005144;28;20491;-43
2023/04/07 00:53:40;;;;;;;3.20;2.53;;;;;;;12.30;65.45;101417.41;5004293;28;20077;-44
2023/04/07 00:56:06;;;;;;;2.50;2.20;;;;;;;12.31;65.58;101422.63;5004498;28;20066;-43
2023/04/07 00:58:31;;;;;;;3.30;2.60;;;;;;;12.31;65.74;101419.13;5004246;28;20526;-42
2023/04/07 01:01:14;;;;;;;3.17;2.38;;;;;;;12.31;65.68;101421.78;5005112;28;20459;-42
2023/04/07 01:04:08;;;;;;;2.35;2.15;;;;;;;12.33;65.68;101419.88;5003678;28;20093;-44
2023/04/07 01:06:37;;;;;;;3.13;2.08;;;;;;;12.31;65.77;101421.78;4972869;28;20078;-43
2023/04/07 01:09:10;;;;;;;3.40;2.53;;;;;;;12.31;65.67;101413.78;5004297;28;20034;-41
2023/04/07 01:11:43;;;;;;;2.20;2.00;;;;;;;12.30;65.71;101420.94;5004359;28;20384;-42
2023/04/07 01:14:12;;;;;;;2.75;2.25;;;;;;;12.29;65.71;101413.88;5003239;28;20480;-42
2023/04/07 01:16:49;;;;;;;2.60;2.40;;;;;;;12.30;65.80;101418.28;5001247;28;20041;-43
2023/04/07 01:19:33;;;;;;;2.45;2.25;;;;;;;12.32;65.42;101420.84;5003414;28;20479;-43
2023/04/07 01:21:59;;;;;;;3.40;2.60;;;;;;;12.30;65.58;101420.09;5006133;28;20034;-41
2023/04/07 01:24:38;;;;;;;3.22;2.25;;;;;;;12.31;65.54;101421.78;5004016;28;20417;-42
2023/04/07 01:27:26;;;;;;;2.47;2.08;;;;;;;12.33;65.63;101425.22;5004175;28;20475;-44
2023/04/07 01:29:53;;;;;;;3.03;2.15;;;;;;;12.29;65.47;101432.56;5007089;28;20113;-44
2023/04/07 01:32:19;;;;;;;2.80;2.42;;;;;;;12.30;65.66;101434.28;5004280;28;20053;-42
2023/04/07 01:34:48;;;;;;;2.17;1.98;;;;;;;12.29;65.44;101434.38;5004075;28;20479;-43
2023/04/07 01:37:15;;;;;;;2.00;1.85;;;;;;;12.29;65.57;101435.22;5004025;28;20030;-42
2023/04/07 01:39:41;;;;;;;2.50;2.20;;;;;;;12.29;65.53;101429.88;5003818;28;20040;-42
2023/04/07 01:42:07;;;;;;;2.20;1.75;;;;;;;12.29;65.44;101429.03;5003638;28;20034;-42
2023/04/07 01:44:34;;;;;;;2.20;1.90;;;;;;;12.28;65.45;101429.97;5004152;28;20030;-41
2023/04/07 01:47:01;;;;;;;1.90;1.80;;;;;;;12.28;65.76;101429.97;5003714;28;20046;-42
2023/04/07 01:49:28;;;;;;;3.50;2.00;;;;;;;12.29;65.41;101429.03;5003614;28;20030;-42
2023/04/07 01:51:55;;;;;;;2.03;1.90;;;;;;;12.28;65.71;101437.97;5003479;28;20033;-42
2023/04/07 01:54:22;;;;;;;2.42;2.08;;;;;;;12.27;65.53;101445.16;5005442;28;20099;-44
2023/04/07 01:56:47;;;;;;;3.05;2.00;;;;;;;12.27;65.76;101446.97;5003884;28;20037;-45
2023/04/07 01:59:12;;;;;;;2.05;1.80;;;;;;;12.29;65.50;101450.41;5003404;28;20038;-47
2023/04/07 02:01:38;;;;;;;2.45;1.70;;;;;;;12.28;65.68;101448.66;5003660;28;20026;-45
2023/04/07 02:04:10;;;;;;;3.22;2.13;;;;;;;12.29;65.74;101458.41;5002220;28;20096;-46
2023/04/07 02:06:52;;;;;;;3.90;1.67;;;;;;;12.28;65.66;101465.56;5003458;28;20064;-46
2023/04/07 02:09:20;;;;;;;1.98;1.77;;;;;;;12.28;65.45;101454.00;5003759;28;20045;-46
2023/04/07 02:11:46;;;;;;;3.55;1.95;;;;;;;12.27;65.59;101453.16;5005707;28;20404;-47
2023/04/07 02:14:13;;;;;;;3.33;1.70;;;;;;;12.28;65.88;101459.34;5000638;28;20654;-45
2023/04/07 02:16:40;;;;;;;3.13;1.95;;;;;;;12.28;65.70;101459.34;5006234;28;20468;-47
2023/04/07 02:19:06;;;;;;;2.17;1.52;;;;;;;12.27;65.47;101461.16;5003317;28;20391;-46
2023/04/07 02:21:33;;;;;;;2.53;1.75;;;;;;;12.27;65.85;101462.97;5001753;28;20034;-47
2023/04/07 02:24:06;;;;;;;2.42;1.98;;;;;;;12.28;65.81;101462.00;5001932;28;20038;-45
2023/04/07 02:26:34;;;;;;;1.58;1.48;;;;;;;12.27;65.78;101457.66;5000163;28;20022;-48
2023/04/07 02:28:59;;;;;;;1.60;1.50;;;;;;;12.27;65.56;101460.31;5001034;28;20077;-45
2023/04/07 02:31:25;;;;;;;2.08;1.63;;;;;;;12.28;65.38;101456.69;5003163;28;20428;-45
2023/04/07 02:33:50;;;;;;;2.15;1.42;;;;;;;12.26;65.46;101446.13;5003505;28;20121;-45
2023/04/07 02:36:15;;;;;;;1.70;1.60;;;;;;;12.26;65.53;101446.13;5003064;28;20036;-45
2023/04/07 02:38:41;;;;;;;3.72;1.60;;;;;;;12.26;65.36;101448.78;5002934;28;20073;-45
2023/04/07 02:41:06;;;;;;;1.73;1.50;;;;;;;12.26;65.83;101450.56;5003360;28;20057;-45
2023/04/07 02:43:31;;;;;;;2.00;1.58;;;;;;;12.27;65.87;101449.63;5003158;28;20031;-46
2023/04/07 02:45:57;;;;;;;1.50;1.40;;;;;;;12.26;65.65;101450.56;5003120;28;20475;-48
2023/04/07 02:48:22;;;;;;;3.50;1.67;;;;;;;12.26;65.89;101450.56;5003645;28;20073;-47
2023/04/07 02:50:48;;;;;;;2.00;1.63;;;;;;;12.26;66.04;101445.22;5003238;28;20498;-46
2023/04/07 02:53:13;;;;;;;1.65;1.40;;;;;;;12.26;65.51;101451.44;5005343;28;20060;-46
2023/04/07 02:55:38;;;;;;;2.63;1.70;;;;;;;12.26;65.46;101451.44;5003071;28;20044;-46
2023/04/07 02:58:04;;;;;;;1.38;1.27;;;;;;;12.26;65.55;101450.56;5003561;28;20104;-45
2023/04/07 03:00:30;;;;;;;1.75;1.48;;;;;;;12.26;65.63;101450.56;5003139;28;20093;-45
2023/04/07 03:02:55;;;;;;;2.97;1.42;;;;;;;12.25;65.84;101444.38;5002814;28;20484;-46
2023/04/07 03:05:20;;;;;;;1.48;1.25;;;;;;;12.26;65.79;101447.91;5003301;28;20046;-47
2023/04/07 03:07:46;;;;;;;1.67;1.50;;;;;;;12.25;65.83;101448.88;5006488;28;20026;-46
2023/04/07 03:10:11;;;;;;;1.70;1.40;;;;;;;12.26;65.71;101450.56;5009578;28;20456;-45
2023/04/07 03:12:36;;;;;;;1.95;1.50;;;;;;;12.26;65.77;101450.56;5005988;28;20100;-46
2023/04/07 03:15:02;;;;;;;1.63;1.35;;;;;;;12.25;65.54;101455.06;5006374;28;20117;-45
2023/04/07 03:17:27;;;;;;;1.23;1.13;;;;;;;12.26;65.76;101450.56;5009690;28;20030;-46
2023/04/07 03:19:53;;;;;;;2.08;1.33;;;;;;;12.26;65.73;101453.25;5007382;28;20483;-45
2023/04/07 03:22:18;;;;;;;1.60;1.42;;;;;;;12.25;65.51;101451.53;5006519;28;20048;-45
2023/04/07 03:24:43;;;;;;;1.38;1.27;;;;;;;12.25;65.47;101452.41;5006239;28;20092;-46
2023/04/07 03:27:09;;;;;;;1.35;1.25;;;;;;;12.24;65.75;101450.69;5006317;28;20030;-44
2023/04/07 03:29:35;;;;;;;1.80;1.33;;;;;;;12.24;65.78;101453.38;5004198;28;20044;-46
2023/04/07 03:32:00;;;;;;;3.50;1.38;;;;;;;12.24;65.57;101455.16;5008883;28;20084;-46
2023/04/07 03:34:25;;;;;;;1.65;1.50;;;;;;;12.25;65.77;101454.22;5006035;28;20036;-46
2023/04/07 03:36:51;;;;;;;1.73;1.40;;;;;;;12.25;65.64;101448.88;5006633;28;20057;-46
2023/04/07 03:39:16;;;;;;;1.88;1.73;;;;;;;12.25;65.82;101456.88;5006165;28;20057;-45
2023/04/07 03:41:42;;;;;;;1.10;1.05;;;;;;;12.24;65.79;101458.69;5006207;28;20391;-46
2023/04/07 03:44:07;;;;;;;1.10;1.00;;;;;;;12.24;65.78;101452.47;5009793;28;20023;-45
2023/04/07 03:46:32;;;;;;;1.27;1.10;;;;;;;12.24;65.57;101460.50;5005869;28;20072;-45
2023/04/07 03:48:58;;;;;;;2.90;1.42;;;;;;;12.24;65.51;101460.50;5004522;28;20030;-45
2023/04/07 03:51:23;;;;;;;1.55;1.17;;;;;;;12.23;65.43;101462.31;5006210;28;20033;-45
2023/04/07 03:53:49;;;;;;;1.88;1.60;;;;;;;12.23;65.53;101456.97;5005485;28;20400;-46
2023/04/07 03:56:15;;;;;;;2.35;1.25;;;;;;;12.23;65.85;101470.31;5004300;28;20034;-46
2023/04/07 03:58:41;;;;;;;1.25;1.10;;;;;;;12.23;65.87;101462.31;5005759;28;20039;-45
2023/04/07 04:01:07;;;;;;;2.67;1.10;;;;;;;12.23;65.54;101464.13;5005431;28;20448;-47
2023/04/07 04:03:32;;;;;;;1.83;1.23;;;;;;;12.23;65.82;101456.97;5007562;28;20030;-48
2023/04/07 04:05:58;;;;;;;2.90;1.25;;;;;;;12.23;65.43;101461.47;5010686;28;20109;-47
2023/04/07 04:08:23;;;;;;;1.67;1.20;;;;;;;12.23;65.54;101466.81;5011087;28;20030;-47
2023/04/07 04:10:49;;;;;;;1.23;0.98;;;;;;;12.23;65.45;101466.81;5005593;28;20453;-46
2023/04/07 04:13:14;;;;;;;2.78;1.20;;;;;;;12.23;65.54;101464.13;5005359;28;20030;-45
2023/04/07 04:15:39;;;;;;;1.80;1.00;;;;;;;12.22;65.45;101465.94;5005363;28;20026;-46
2023/04/07 04:18:05;;;;;;;0.95;0.90;;;;;;;12.23;65.51;101464.13;5004726;28;20065;-46
2023/04/07 04:20:30;;;;;;;1.02;1.02;;;;;;;12.23;65.74;101456.13;5011209;28;20080;-46
2023/04/07 04:22:55;;;;;;;1.00;1.00;;;;;;;12.23;66.16;101466.81;5005830;28;20026;-45
2023/04/07 04:25:21;;;;;;;1.70;1.15;;;;;;;12.22;65.90;101465.06;5005104;28;20034;-45
2023/04/07 04:27:46;;;;;;;1.98;1.15;;;;;;;12.23;65.46;101466.81;5004980;28;20026;-45
2023/04/07 04:30:12;;;;;;;1.98;1.00;;;;;;;12.22;65.51;101468.63;5011192;28;20474;-46
2023/04/07 04:32:38;;;;;;;2.63;1.10;;;;;;;12.22;65.47;101468.63;5003583;28;20045;-45
2023/04/07 04:35:04;;;;;;;1.58;1.20;;;;;;;12.21;65.60;101472.22;5004819;28;20111;-46
2023/04/07 04:37:29;;;;;;;1.88;1.10;;;;;;;12.22;65.51;101470.41;5008286;28;20066;-45
2023/04/07 04:39:54;;;;;;;1.85;1.20;;;;;;;12.22;65.75;101476.63;5011842;28;20026;-47
2023/04/07 04:42:20;;;;;;;1.73;1.13;;;;;;;12.22;65.69;101470.41;5004691;28;20184;-47
2023/04/07 04:44:45;;;;;;;1.13;1.02;;;;;;;12.21;65.46;101477.56;5004790;28;20030;-47
2023/04/07 04:47:11;;;;;;;1.30;1.05;;;;;;;12.22;65.58;101486.44;5004705;28;20598;-46
2023/04/07 04:49:36;;;;;;;1.40;1.30;;;;;;;12.21;65.46;101484.72;5011166;28;20041;-45
2023/04/07 04:52:01;;;;;;;1.35;1.25;;;;;;;12.21;65.52;101479.38;5007501;28;20037;-45
2023/04/07 04:54:27;;;;;;;1.60;1.35;;;;;;;12.20;65.79;101486.50;5004798;28;20057;-46
2023/04/07 04:56:52;;;;;;;1.05;0.95;;;;;;;12.20;65.74;101499.84;5004630;28;20117;-47
2023/04/07 04:59:17;;;;;;;1.30;1.20;;;;;;;12.20;65.79;101491.84;5004528;28;20034;-47
2023/04/07 05:01:43;;;;;;;2.03;1.35;;;;;;;12.21;65.75;101496.25;5004425;28;20087;-45
2023/04/07 05:04:09;;;;;;;1.48;1.20;;;;;;;12.20;65.73;101505.19;5004354;28;20033;-47
2023/04/07 05:06:34;;;;;;;1.23;1.10;;;;;;;12.20;65.43;101501.69;5004634;28;20036;-45
2023/04/07 05:09:00;;;;;;;2.15;1.05;;;;;;;12.20;65.57;101499.00;5004333;28;20084;-46
2023/04/07 05:11:26;;;;;;;1.48;1.10;;;;;;;12.20;65.64;101499.00;5004838;28;20037;-45
2023/04/07 05:13:51;;;;;;;1.15;1.05;;;;;;;12.20;65.49;101505.19;5004363;28;20092;-47
2023/04/07 05:16:16;;;;;;;2.00;1.40;;;;;;;12.20;65.27;101513.22;5004229;28;20041;-46
2023/04/07 05:18:42;;;;;;;1.10;1.00;;;;;;;12.20;65.71;101501.69;5004144;28;20095;-46
2023/04/07 05:21:07;;;;;;;2.22;1.30;;;;;;;12.19;65.71;101511.50;5004341;28;20116;-48
2023/04/07 05:23:32;;;;;;;1.40;1.30;;;;;;;12.19;65.71;101508.84;5007202;28;20026;-46
2023/04/07 05:25:58;;;;;;;2.15;1.33;;;;;;;12.19;65.37;101514.19;5019962;28;20097;-45
2023/04/07 05:28:24;;;;;;;1.30;1.17;;;;;;;12.20;65.75;101520.38;5004105;28;20534;-46
2023/04/07 05:30:49;;;;;;;1.75;1.40;;;;;;;12.19;65.67;101521.34;5002911;28;20037;-46
2023/04/07 05:33:15;;;;;;;1.20;1.10;;;;;;;12.19;65.91;101521.34;5004242;28;20033;-47
2023/04/07 05:35:40;;;;;;;3.03;1.27;;;;;;;12.19;65.85;101516.00;5004414;28;20065;-47
2023/04/07 05:38:06;;;;;;;1.20;1.10;;;;;;;12.19;65.71;101516.00;5009384;28;20057;-48
2023/04/07 05:40:31;;;;;;;1.73;1.23;;;;;;;12.19;65.49;101524.00;5006871;28;20045;-52
2023/04/07 05:42:56;;;;;;;1.30;1.20;;;;;;;12.19;65.75;101529.34;5003529;28;20030;-47
2023/04/07 05:45:22;;;;;;;1.80;1.50;;;;;;;12.18;65.80;101530.28;5005213;28;20038;-48
2023/04/07 05:47:49;;;;;;;1.88;1.30;;;;;;;12.19;65.89;101524.00;5003191;28;20057;-48
2023/04/07 05:50:15;;;;;;;2.03;1.30;;;;;;;12.18;65.58;101523.13;5002953;28;20037;-48
2023/04/07 05:52:41;;;;;;;3.47;1.40;;;;;;;12.19;65.95;101524.00;5002968;28;20085;-48
2023/04/07 05:55:07;;;;;;;1.38;1.10;;;;;;;12.18;65.56;101528.47;5003163;28;20072;-48
2023/04/07 05:57:33;;;;;;;1.77;1.40;;;;;;;12.18;66.18;101528.47;5003146;28;20553;-48
2023/04/07 05:59:59;;;;;;;1.38;1.13;;;;;;;12.19;65.74;101537.34;5003704;28;20483;-49
2023/04/07 06:02:24;;;;;;;1.30;1.20;;;;;;;12.19;65.92;101529.34;5005672;28;20056;-47
2023/04/07 06:04:50;;;;;;;3.40;1.20;;;;;;;12.19;65.69;101532.88;5010215;28;20117;-50
2023/04/07 06:07:15;;;;;;;1.73;1.50;;;;;;;12.18;65.58;101532.94;5010006;28;20062;-49
2023/04/07 06:09:41;;;;;;;2.40;1.42;;;;;;;12.18;65.97;101532.94;5010552;28;20033;-47
2023/04/07 06:12:08;;;;;;;1.92;1.20;;;;;;;12.19;65.90;101540.88;5009420;28;20034;-47
2023/04/07 06:14:33;;;;;;;1.95;1.30;;;;;;;12.19;65.87;101543.53;5003088;28;20387;-48
2023/04/07 06:16:59;;;;;;;1.33;1.20;;;;;;;12.18;65.44;101548.97;5003236;28;20026;-47
2023/04/07 06:19:26;;;;;;;1.52;1.00;;;;;;;12.19;65.95;101550.69;5006073;28;20036;-47
2023/04/07 06:21:51;;;;;;;2.83;1.08;;;;;;;12.19;66.18;101550.69;5009777;28;20387;-48
2023/04/07 06:24:17;;;;;;;1.60;1.00;;;;;;;12.19;65.51;101545.38;5008637;28;20030;-47
2023/04/07 06:26:43;;;;;;;2.17;1.23;;;;;;;12.19;65.75;101561.38;5006803;28;20384;-48
2023/04/07 06:29:09;;;;;;;1.73;1.40;;;;;;;12.18;66.20;101547.16;5002606;28;20467;-47
2023/04/07 06:31:34;;;;;;;2.60;1.25;;;;;;;12.19;65.81;101558.72;5005181;28;20030;-47
2023/04/07 06:34:00;;;;;;;5.65;1.60;;;;;;;12.19;65.99;101556.91;5006567;28;20034;-47
2023/04/07 06:36:26;;;;;;;2.17;1.30;;;;;;;12.20;66.25;101557.75;5008646;28;20030;-48
2023/04/07 06:38:52;;;;;;;7.88;1.50;;;;;;;12.19;66.14;101558.72;5006175;28;20034;-47
2023/04/07 06:41:17;;;;;;;3.40;1.63;;;;;;;12.19;66.37;101562.22;5003698;28;20045;-47
2023/04/07 06:43:45;;;;;;;2.63;1.67;;;;;;;12.20;66.09;101568.41;5021547;28;20475;-47
2023/04/07 06:46:10;;;;;;;1.60;1.40;;;;;;;12.18;66.79;101567.66;5006549;28;20475;-48
2023/04/07 06:48:36;;;;;;;1.48;1.38;;;;;;;12.20;66.42;101571.09;5006284;28;20036;-45
2023/04/07 06:51:01;;;;;;;2.50;1.42;;;;;;;12.20;66.59;101574.63;5005069;28;20118;-46
2023/04/07 06:53:26;;;;;;;2.13;1.50;;;;;;;12.20;66.34;101576.44;5006061;28;20058;-46
2023/04/07 06:56:11;;;;;;;3.85;1.67;;;;;;;12.21;66.16;101583.50;5004368;28;20427;-46
2023/04/07 06:58:37;;;;;;;4.07;1.67;;;;;;;12.19;66.10;101574.72;5010149;28;20036;-45
2023/04/07 07:01:03;;;;;;;4.85;1.90;;;;;;;12.19;66.36;101582.75;5013909;28;20034;-46
2023/04/07 07:03:30;;;;;;;5.38;2.00;;;;;;;12.19;66.12;101588.94;5008890;28;20034;-45
2023/04/07 07:05:56;;;;;;;5.00;1.92;;;;;;;12.19;66.53;101586.25;5006040;28;20038;-47
2023/04/07 07:08:22;;;;;;;2.17;1.90;;;;;;;12.19;66.22;101585.41;5006155;28;20360;-46
2023/04/07 07:10:47;;;;;;;2.05;1.50;;;;;;;12.19;66.19;101593.41;5005943;28;20036;-48
2023/04/07 07:13:13;;;;;;;5.57;1.60;;;;;;;12.20;66.26;101589.78;5005753;28;20030;-46
2023/04/07 07:15:38;;;;;;;2.78;1.63;;;;;;;12.20;66.60;101592.44;5005825;28;20030;-46
2023/04/07 07:18:04;;;;;;;5.40;2.05;;;;;;;12.20;66.26;101589.78;5006397;28;20041;-46
2023/04/07 07:20:29;;;;;;;2.75;2.05;;;;;;;12.19;66.32;101591.59;5005774;28;20141;-45
2023/04/07 07:22:55;;;;;;;3.20;1.52;;;;;;;12.21;66.15;101591.50;5005713;28;20044;-45
2023/04/07 07:25:21;;;;;;;2.38;1.90;;;;;;;12.20;66.43;101597.78;5005728;28;20498;-46
2023/04/07 07:27:46;;;;;;;6.00;2.17;;;;;;;12.20;66.37;101601.31;5005436;28;20487;-46
2023/04/07 07:30:11;;;;;;;8.85;2.22;;;;;;;12.21;66.69;101602.19;5005519;28;20041;-46
2023/04/07 07:32:37;;;;;;;6.20;2.20;;;;;;;12.22;66.44;101601.22;5005226;28;20484;-47
2023/04/07 07:35:03;;;;;;;5.07;1.95;;;;;;;12.22;66.59;101598.56;5005928;28;20038;-46
2023/04/07 07:37:28;;;;;;;3.22;1.52;;;;;;;12.21;66.45;101596.84;5005641;28;20065;-48
2023/04/07 07:39:55;;;;;;;12.07;2.60;;;;;;;12.21;66.67;101605.72;5008652;28;20168;-47
2023/04/07 07:42:20;;;;;;;4.25;1.70;;;;;;;12.21;66.66;101604.88;5007117;28;20034;-48
2023/04/07 07:44:45;;;;;;;3.05;1.95;;;;;;;12.21;66.58;101607.53;5009212;28;20030;-45
2023/04/07 07:47:11;;;;;;;4.10;2.30;;;;;;;12.22;66.74;101619.91;5008547;28;20060;-46
2023/04/07 07:49:36;;;;;;;3.92;1.90;;;;;;;12.22;66.49;101620.81;5009126;28;20053;-49
2023/04/07 07:52:02;;;;;;;4.20;1.83;;;;;;;12.22;66.73;101625.25;5005769;28;20113;-45
2023/04/07 07:54:27;;;;;;;3.10;2.08;;;;;;;12.22;66.35;101625.25;5004754;28;20526;-46
2023/04/07 07:56:53;;;;;;;2.90;1.92;;;;;;;12.22;66.58;101614.56;5005279;28;20038;-47
2023/04/07 07:59:18;;;;;;;4.65;1.83;;;;;;;12.22;66.53;101619.91;5005626;28;20038;-46
2023/04/07 08:01:44;;;;;;;5.97;2.28;;;;;;;12.22;66.92;101619.91;5005583;28;20451;-45
2023/04/07 08:04:09;;;;;;;3.95;1.75;;;;;;;12.22;66.75;101625.25;5005661;28;20034;-47
2023/04/07 08:06:36;;;;;;;3.15;1.80;;;;;;;12.22;66.59;101625.25;5005885;28;20064;-46
2023/04/07 08:09:02;;;;;;;3.78;1.80;;;;;;;12.22;66.56;101627.94;5005345;28;20040;-47
2023/04/07 08:11:27;;;;;;;3.53;1.85;;;;;;;12.23;66.59;101635.84;5005513;28;20034;-45
2023/04/07 08:13:53;;;;;;;4.78;1.63;;;;;;;12.23;66.78;101635.84;5005236;28;20033;-46
2023/04/07 08:16:19;;;;;;;3.97;1.67;;;;;;;12.24;66.64;101644.72;5020390;28;20046;-45
2023/04/07 08:18:45;;;;;;;4.80;1.58;;;;;;;12.23;66.57;101640.34;5005223;28;20030;-45
2023/04/07 08:21:11;;;;;;;3.20;1.50;;;;;;;12.23;66.77;101646.53;5005415;28;20105;-46
2023/04/07 08:23:37;;;;;;;3.08;1.40;;;;;;;12.23;66.61;101645.69;5005624;28;20026;-46
2023/04/07 08:26:02;;;;;;;2.97;1.67;;;;;;;12.23;66.34;101643.00;5005108;28;20483;-46
2023/04/07 08:28:28;;;;;;;2.95;1.40;;;;;;;12.24;66.34;101652.72;5004916;28;20073;-45
2023/04/07 08:30:53;;;;;;;4.28;1.58;;;;;;;12.24;66.57;101652.72;5005055;28;20117;-46
2023/04/07 08:33:19;;;;;;;4.90;1.40;;;;;;;12.24;66.58;101652.72;5004905;28;20038;-47
2023/04/07 08:35:44;;;;;;;1.50;1.23;;;;;;;12.24;66.20;101655.41;5005273;28;20104;-46
2023/04/07 08:38:09;;;;;;;5.18;1.75;;;;;;;12.23;66.72;101649.19;5004904;28;20132;-46
2023/04/07 08:40:35;;;;;;;1.75;1.50;;;;;;;12.22;66.31;101654.63;5005543;28;20046;-45
2023/04/07 08:43:07;;;;;;;1.98;1.38;;;;;;;12.22;66.68;101655.50;5004696;28;20026;-46
2023/04/07 08:45:32;;;;;;;;;;;;;;;12.31;66.12;101659.44;5005221;28;20034;-47
2023/04/07 08:48:02;;;;;;;1.95;1.35;;;;;;;12.25;66.39;101662.47;5004707;28;20032;-45
2023/04/07 08:50:27;;;;;;;1.73;1.35;;;;;;;12.26;66.20;101661.50;5004654;28;20030;-47
2023/04/07 08:52:55;;;;;;;2.45;1.38;;;;;;;12.25;66.48;101668.66;5004442;28;20066;-46
2023/04/07 08:55:21;;;;;;;4.97;1.38;;;;;;;12.26;66.35;101666.84;5004601;28;20053;-46
2023/04/07 08:57:47;;;;;;;3.55;1.20;;;;;;;12.26;66.26;101673.06;5004419;28;20084;-46
2023/04/07 09:00:13;;;;;;;1.38;0.75;;;;;;;12.26;66.32;101669.50;5004793;28;20058;-46
2023/04/07 09:02:42;;;;;;;3.28;1.13;;;;;;;12.27;66.44;101673.91;5004758;28;20042;-48
2023/04/07 09:05:08;;;;;;;1.40;1.25;;;;;;;12.27;66.16;101671.25;5004749;28;20109;-47
2023/04/07 09:07:35;;;;;;;1.58;1.13;;;;;;;12.27;66.13;101673.91;5004710;28;20117;-46
2023/04/07 09:10:01;;;;;;;1.92;1.17;;;;;;;12.28;66.34;101678.28;5003997;28;20025;-46
2023/04/07 09:12:28;;;;;;;1.00;0.90;;;;;;;12.28;66.37;101678.28;5004416;28;20483;-46
2023/04/07 09:14:54;;;;;;;1.77;1.05;;;;;;;12.27;66.33;101677.44;5004198;28;20040;-47
2023/04/07 09:17:19;;;;;;;2.10;1.05;;;;;;;12.28;66.36;101683.63;5004444;28;20445;-47
2023/04/07 09:19:46;;;;;;;2.13;1.17;;;;;;;12.27;66.39;101679.25;5004100;28;20518;-46
2023/04/07 09:22:13;;;;;;;1.08;0.80;;;;;;;12.27;66.06;101682.78;5004125;28;20069;-46
2023/04/07 09:24:40;;;;;;;2.50;1.08;;;;;;;12.28;66.32;101683.63;5011082;28;20065;-47
2023/04/07 09:27:16;;;;;;;2.92;1.13;;;;;;;12.28;66.04;101688.97;5004526;28;20080;-47
2023/04/07 09:29:42;;;;;;;2.00;1.10;;;;;;;12.26;66.42;101686.41;5004235;28;20164;-46
2023/04/07 09:32:09;;;;;;;2.17;1.13;;;;;;;12.26;66.17;101690.88;5004396;28;20440;-48
2023/04/07 09:34:37;;;;;;;1.67;1.10;;;;;;;12.27;66.31;101689.94;5003635;28;20025;-46
2023/04/07 09:37:04;;;;;;;1.95;1.13;;;;;;;12.28;66.34;101694.31;5004010;28;20034;-48
2023/04/07 09:39:30;;;;;;;2.47;1.10;;;;;;;12.27;66.14;101689.94;5003955;28;20068;-45
2023/04/07 09:41:55;;;;;;;2.00;1.17;;;;;;;12.27;66.32;101692.63;5009254;28;20463;-46
2023/04/07 09:44:22;;;;;;;1.90;1.10;;;;;;;12.26;66.42;101688.19;5011189;28;20028;-46
2023/04/07 09:46:55;;;;;;;1.60;1.10;;;;;;;12.27;66.42;101689.94;5011105;28;20030;-50
2023/04/07 09:49:23;;;;;;;4.88;1.20;;;;;;;12.27;66.33;101681.94;5011421;28;20022;-47
2023/04/07 09:51:56;;;;;;;2.28;1.10;;;;;;;12.26;66.31;101681.06;5010055;28;20045;-46
2023/04/07 09:54:41;;;;;;;2.53;1.20;;;;;;;12.29;66.10;101690.72;5010020;28;20096;-46
2023/04/07 09:57:09;;;;;;;2.50;1.02;;;;;;;12.27;66.25;101693.47;5007934;28;20041;-47
2023/04/07 09:59:36;;;;;;;1.45;1.00;;;;;;;12.27;66.30;101693.47;5005754;28;20025;-48
2023/04/07 10:02:02;;;;;;;2.05;1.20;;;;;;;12.27;66.34;101687.28;5003622;28;21120;-46
2023/04/07 10:04:28;;;;;;;1.38;1.05;;;;;;;12.27;66.10;101698.81;5009906;28;20025;-46
2023/04/07 10:06:55;;;;;;;2.05;0.88;;;;;;;12.27;66.32;101700.63;5003145;28;20116;-49
2023/04/07 10:09:27;;;;;;;3.03;1.13;;;;;;;12.27;66.26;101703.28;5003501;28;20112;-47
2023/04/07 10:11:55;;;;;;;1.67;1.00;;;;;;;12.27;66.24;101703.28;5002882;28;20471;-46
2023/04/07 10:14:25;;;;;;;2.25;0.98;;;;;;;12.26;66.25;101702.44;5004564;28;20467;-48
2023/04/07 10:16:51;;;;;;;2.80;1.02;;;;;;;12.27;66.18;101711.31;5006801;28;20036;-47
2023/04/07 10:19:18;;;;;;;0.85;0.80;;;;;;;12.26;66.20;101717.56;5007347;28;20034;-46
2023/04/07 10:21:45;;;;;;;2.35;1.10;;;;;;;12.27;66.46;101713.97;5006757;28;20387;-48
2023/04/07 10:24:35;;;;;;;2.38;1.10;;;;;;;12.27;66.25;101708.63;5003189;28;20030;-47
2023/04/07 10:27:07;;;;;;;1.48;1.17;;;;;;;12.27;66.28;101713.97;5001539;28;20037;-49
2023/04/07 10:29:39;;;;;;;2.92;0.90;;;;;;;12.28;66.27;101721.00;5004083;28;20456;-47
2023/04/07 10:32:04;;;;;;;1.23;0.90;;;;;;;12.28;66.55;101729.03;5010017;28;20026;-50
2023/04/07 10:34:49;;;;;;;2.75;1.30;;;;;;;12.30;66.28;101721.81;5010404;28;20105;-49
2023/04/07 10:37:24;;;;;;;2.00;0.90;;;;;;;12.30;66.44;101729.84;5009750;28;20471;-49
2023/04/07 10:40:11;;;;;;;2.03;0.98;;;;;;;12.28;66.44;101731.69;5007906;28;20030;-49
2023/04/07 10:42:36;;;;;;;2.67;0.98;;;;;;;12.29;66.26;101728.09;5009254;28;20022;-50
2023/04/07 10:45:03;;;;;;;1.20;1.00;;;;;;;12.29;66.33;101723.59;5009496;28;20032;-48
2023/04/07 10:47:28;;;;;;;2.63;0.80;;;;;;;12.29;66.31;101722.75;5010072;28;20057;-46
2023/04/07 10:50:20;;;;;;;1.20;0.98;;;;;;;12.31;66.31;101726.19;5015167;28;20467;-48
2023/04/07 10:52:47;;;;;;;1.02;0.88;;;;;;;12.30;66.22;101729.84;5012838;28;20073;-50
2023/04/07 10:55:33;;;;;;;1.63;0.93;;;;;;;12.31;66.10;101726.19;5017224;28;20041;-50
2023/04/07 10:58:23;;;;;;;1.83;1.02;;;;;;;12.31;66.36;101736.88;5016058;28;20113;-47
2023/04/07 11:01:10;;;;;;;3.10;0.95;;;;;;;12.31;66.37;101735.06;5013508;28;20468;-50
2023/04/07 11:03:38;;;;;;;3.13;0.95;;;;;;;12.31;66.54;101737.72;5014702;28;20097;-48
2023/04/07 11:06:12;;;;;;;2.92;1.42;;;;;;;12.30;66.51;101735.16;5010571;28;20030;-48
2023/04/07 11:08:45;;;;;;;1.70;1.00;;;;;;;12.30;66.43;101741.38;5007945;28;20030;-48
2023/04/07 11:11:14;;;;;;;1.67;0.90;;;;;;;12.29;66.23;101741.44;5010437;28;20033;-46
2023/04/07 11:13:47;;;;;;;1.13;0.88;;;;;;;12.30;66.47;101740.50;5009743;28;20026;-48
2023/04/07 11:16:14;;;;;;;3.03;0.98;;;;;;;12.31;66.39;101744.88;5009396;28;20033;-49
2023/04/07 11:18:40;;;;;;;2.60;1.15;;;;;;;12.29;66.54;101742.28;5010441;28;20037;-50
2023/04/07 11:21:06;;;;;;;2.85;0.98;;;;;;;12.30;66.56;101752.03;5009754;28;20036;-50
2023/04/07 11:23:40;;;;;;;4.57;1.00;;;;;;;12.30;66.43;101737.84;5009500;28;20045;-50